sensor_id;sensor_type;location;lat;lon;timestamp;pressure;altitude;pressure_sealevel;temperature;humidity
55410;BME280;41279;43.546;16.426;2023-03-16T00:01:14;52420.31;;;-146.77;39.31
55410;BME280;41279;43.546;16.426;2023-03-16T00:03:40;52416.31;;;-146.77;38.94
55410;BME280;41279;43.546;16.426;2023-03-16T00:06:05;52388.28;;;-146.77;38.93
55410;BME280;41279;43.546;16.426;2023-03-16T00:08:31;52448.34;;;-146.77;39.29
55410;BME280;41279;43.546;16.426;2023-03-16T00:10:56;52426.34;;;-146.77;38.94
55410;BME280;41279;43.546;16.426;2023-03-16T00:13:23;52434.34;;;-146.77;38.80
55410;BME280;41279;43.546;16.426;2023-03-16T00:15:50;52390.28;;;-146.77;39.33
55410;BME280;41279;43.546;16.426;2023-03-16T00:18:15;52432.34;;;-146.77;39.42
55410;BME280;41279;43.546;16.426;2023-03-16T00:20:41;52420.31;;;-146.77;39.34
55410;BME280;41279;43.546;16.426;2023-03-16T00:23:06;52430.34;;;-146.77;39.30
55410;BME280;41279;43.546;16.426;2023-03-16T00:25:32;52426.34;;;-146.77;39.09
55410;BME280;41279;43.546;16.426;2023-03-16T00:27:59;52434.34;;;-146.77;38.95
55410;BME280;41279;43.546;16.426;2023-03-16T00:30:35;52398.31;;;-146.77;38.83
55410;BME280;41279;43.546;16.426;2023-03-16T00:33:00;52416.31;;;-146.77;39.64
55410;BME280;41279;43.546;16.426;2023-03-16T00:35:26;52434.34;;;-146.77;39.00
55410;BME280;41279;43.546;16.426;2023-03-16T00:37:52;52422.31;;;-146.77;39.07
55410;BME280;41279;43.546;16.426;2023-03-16T00:40:21;52430.34;;;-146.77;39.16
55410;BME280;41279;43.546;16.426;2023-03-16T00:42:47;52396.31;;;-146.77;38.80
55410;BME280;41279;43.546;16.426;2023-03-16T00:45:19;52446.34;;;-146.77;39.47
55410;BME280;41279;43.546;16.426;2023-03-16T00:47:44;52408.31;;;-146.77;38.89
55410;BME280;41279;43.546;16.426;2023-03-16T00:50:10;52414.31;;;-146.77;38.97
55410;BME280;41279;43.546;16.426;2023-03-16T00:52:35;52408.31;;;-146.77;38.88
55410;BME280;41279;43.546;16.426;2023-03-16T00:55:01;52428.34;;;-146.77;39.13
55410;BME280;41279;43.546;16.426;2023-03-16T00:57:29;52438.34;;;-146.77;38.74
55410;BME280;41279;43.546;16.426;2023-03-16T00:59:54;52426.34;;;-146.77;38.67
55410;BME280;41279;43.546;16.426;2023-03-16T01:02:20;52394.28;;;-146.77;38.91
55410;BME280;41279;43.546;16.426;2023-03-16T01:04:50;52442.34;;;-146.77;38.92
55410;BME280;41279;43.546;16.426;2023-03-16T01:07:16;52414.31;;;-146.77;38.75
55410;BME280;41279;43.546;16.426;2023-03-16T01:09:42;52396.31;;;-146.77;38.29
55410;BME280;41279;43.546;16.426;2023-03-16T01:12:11;52444.34;;;-146.77;38.38
55410;BME280;41279;43.546;16.426;2023-03-16T01:14:37;52426.34;;;-146.77;38.68
55410;BME280;41279;43.546;16.426;2023-03-16T01:17:05;52408.31;;;-146.77;38.64
55410;BME280;41279;43.546;16.426;2023-03-16T01:19:33;52422.31;;;-146.77;38.94
55410;BME280;41279;43.546;16.426;2023-03-16T01:22:03;52442.34;;;-146.77;38.40
55410;BME280;41279;43.546;16.426;2023-03-16T01:24:29;52412.31;;;-146.77;38.80
55410;BME280;41279;43.546;16.426;2023-03-16T01:26:55;52440.34;;;-146.77;38.64
55410;BME280;41279;43.546;16.426;2023-03-16T01:29:20;52404.31;;;-146.77;38.43
55410;BME280;41279;43.546;16.426;2023-03-16T01:31:46;52408.31;;;-146.77;38.37
55410;BME280;41279;43.546;16.426;2023-03-16T01:34:12;52416.31;;;-146.77;38.38
55410;BME280;41279;43.546;16.426;2023-03-16T01:36:42;52430.34;;;-146.77;38.66
55410;BME280;41279;43.546;16.426;2023-03-16T01:39:11;52434.34;;;-146.77;38.17
55410;BME280;41279;43.546;16.426;2023-03-16T01:41:44;52450.34;;;-146.77;38.04
55410;BME280;41279;43.546;16.426;2023-03-16T01:44:15;52442.34;;;-146.77;37.90
55410;BME280;41279;43.546;16.426;2023-03-16T01:46:41;52426.34;;;-146.77;37.73
55410;BME280;41279;43.546;16.426;2023-03-16T01:49:33;52402.31;;;-146.77;38.11
55410;BME280;41279;43.546;16.426;2023-03-16T01:52:13;52420.31;;;-146.77;37.72
55410;BME280;41279;43.546;16.426;2023-03-16T01:54:48;52430.34;;;-146.77;38.38
55410;BME280;41279;43.546;16.426;2023-03-16T01:57:21;52434.34;;;-146.77;38.02
55410;BME280;41279;43.546;16.426;2023-03-16T01:59:54;52402.31;;;-146.77;38.20
55410;BME280;41279;43.546;16.426;2023-03-16T02:02:27;52422.31;;;-146.77;38.36
55410;BME280;41279;43.546;16.426;2023-03-16T02:05:01;52426.34;;;-146.77;37.84
55410;BME280;41279;43.546;16.426;2023-03-16T02:07:29;52408.31;;;-146.77;37.81
55410;BME280;41279;43.546;16.426;2023-03-16T02:09:57;52414.31;;;-146.77;37.44
55410;BME280;41279;43.546;16.426;2023-03-16T02:12:25;52384.28;;;-146.77;37.65
55410;BME280;41279;43.546;16.426;2023-03-16T02:14:51;52418.31;;;-146.77;37.12
55410;BME280;41279;43.546;16.426;2023-03-16T02:17:20;52406.31;;;-146.77;37.07
55410;BME280;41279;43.546;16.426;2023-03-16T02:19:55;52398.31;;;-146.77;37.29
55410;BME280;41279;43.546;16.426;2023-03-16T02:22:23;52430.34;;;-146.77;36.98
55410;BME280;41279;43.546;16.426;2023-03-16T02:24:51;52442.34;;;-146.77;36.74
55410;BME280;41279;43.546;16.426;2023-03-16T02:30:16;52406.31;;;-146.77;37.17
55410;BME280;41279;43.546;16.426;2023-03-16T02:32:43;52418.31;;;-146.77;36.72
55410;BME280;41279;43.546;16.426;2023-03-16T02:35:11;52406.31;;;-146.77;36.84
55410;BME280;41279;43.546;16.426;2023-03-16T02:37:38;52424.31;;;-146.77;37.47
55410;BME280;41279;43.546;16.426;2023-03-16T02:40:25;52432.34;;;-146.77;37.26
55410;BME280;41279;43.546;16.426;2023-03-16T02:42:55;52418.31;;;-146.77;37.07
55410;BME280;41279;43.546;16.426;2023-03-16T02:45:30;52432.34;;;-146.77;37.40
55410;BME280;41279;43.546;16.426;2023-03-16T02:47:58;52438.34;;;-146.77;37.01
55410;BME280;41279;43.546;16.426;2023-03-16T02:50:28;52418.31;;;-146.77;37.42
55410;BME280;41279;43.546;16.426;2023-03-16T02:52:53;52414.31;;;-146.77;37.07
55410;BME280;41279;43.546;16.426;2023-03-16T02:55:19;52414.31;;;-146.77;37.25
55410;BME280;41279;43.546;16.426;2023-03-16T02:57:46;52430.34;;;-146.77;37.50
55410;BME280;41279;43.546;16.426;2023-03-16T03:00:11;52422.31;;;-146.77;37.37
55410;BME280;41279;43.546;16.426;2023-03-16T03:02:42;52402.31;;;-146.77;37.84
55410;BME280;41279;43.546;16.426;2023-03-16T03:05:08;52422.31;;;-146.77;37.72
55410;BME280;41279;43.546;16.426;2023-03-16T03:07:33;52414.31;;;-146.77;37.81
55410;BME280;41279;43.546;16.426;2023-03-16T03:09:59;52444.34;;;-146.77;37.94
55410;BME280;41279;43.546;16.426;2023-03-16T03:12:27;52422.31;;;-146.77;38.17
55410;BME280;41279;43.546;16.426;2023-03-16T03:14:52;52410.31;;;-146.77;38.01
55410;BME280;41279;43.546;16.426;2023-03-16T03:17:18;52404.31;;;-146.77;38.21
55410;BME280;41279;43.546;16.426;2023-03-16T03:19:43;52404.31;;;-146.77;38.08
55410;BME280;41279;43.546;16.426;2023-03-16T03:22:09;52426.34;;;-146.77;38.29
55410;BME280;41279;43.546;16.426;2023-03-16T03:24:34;52420.31;;;-146.77;38.57
55410;BME280;41279;43.546;16.426;2023-03-16T03:27:00;52430.34;;;-146.77;38.94
55410;BME280;41279;43.546;16.426;2023-03-16T03:29:32;52430.34;;;-146.77;39.04
55410;BME280;41279;43.546;16.426;2023-03-16T03:32:02;52386.28;;;-146.77;39.05
55410;BME280;41279;43.546;16.426;2023-03-16T03:34:29;52468.38;;;-146.77;38.98
55410;BME280;41279;43.546;16.426;2023-03-16T03:36:56;52432.34;;;-146.77;39.64
55410;BME280;41279;43.546;16.426;2023-03-16T03:39:22;52406.31;;;-146.77;39.48
55410;BME280;41279;43.546;16.426;2023-03-16T03:41:48;52410.31;;;-146.77;39.61
55410;BME280;41279;43.546;16.426;2023-03-16T03:44:13;52440.34;;;-146.77;40.16
55410;BME280;41279;43.546;16.426;2023-03-16T03:46:39;52446.34;;;-146.77;39.75
55410;BME280;41279;43.546;16.426;2023-03-16T03:49:04;52436.34;;;-146.77;39.48
55410;BME280;41279;43.546;16.426;2023-03-16T03:51:31;52416.31;;;-146.77;39.48
55410;BME280;41279;43.546;16.426;2023-03-16T03:53:57;52428.34;;;-146.77;39.62
55410;BME280;41279;43.546;16.426;2023-03-16T03:56:23;52414.31;;;-146.77;39.58
55410;BME280;41279;43.546;16.426;2023-03-16T03:58:48;52404.31;;;-146.77;39.55
55410;BME280;41279;43.546;16.426;2023-03-16T04:01:14;52430.34;;;-146.77;39.72
55410;BME280;41279;43.546;16.426;2023-03-16T04:03:39;52430.34;;;-146.77;39.88
55410;BME280;41279;43.546;16.426;2023-03-16T04:06:05;52398.31;;;-146.77;39.97
55410;BME280;41279;43.546;16.426;2023-03-16T04:08:32;52410.31;;;-146.77;40.28
55410;BME280;41279;43.546;16.426;2023-03-16T04:10:57;52414.31;;;-146.77;39.96
55410;BME280;41279;43.546;16.426;2023-03-16T04:13:29;52438.34;;;-146.77;40.12
55410;BME280;41279;43.546;16.426;2023-03-16T04:15:56;52416.31;;;-146.77;39.90
55410;BME280;41279;43.546;16.426;2023-03-16T04:18:22;52426.34;;;-146.77;39.70
55410;BME280;41279;43.546;16.426;2023-03-16T04:20:48;52410.31;;;-146.77;40.12
55410;BME280;41279;43.546;16.426;2023-03-16T04:23:13;52428.34;;;-146.77;39.81
55410;BME280;41279;43.546;16.426;2023-03-16T04:25:40;52420.31;;;-146.77;39.78
55410;BME280;41279;43.546;16.426;2023-03-16T04:28:06;52428.34;;;-146.77;39.19
55410;BME280;41279;43.546;16.426;2023-03-16T04:30:31;52416.31;;;-146.77;39.19
55410;BME280;41279;43.546;16.426;2023-03-16T04:32:57;52450.34;;;-146.77;39.30
55410;BME280;41279;43.546;16.426;2023-03-16T04:35:23;52436.34;;;-146.77;39.32
55410;BME280;41279;43.546;16.426;2023-03-16T04:37:48;52438.34;;;-146.77;39.00
55410;BME280;41279;43.546;16.426;2023-03-16T04:40:14;52412.31;;;-146.77;38.94
55410;BME280;41279;43.546;16.426;2023-03-16T04:42:44;52406.31;;;-146.77;38.66
55410;BME280;41279;43.546;16.426;2023-03-16T04:45:11;52426.34;;;-146.77;38.88
55410;BME280;41279;43.546;16.426;2023-03-16T04:47:37;52408.31;;;-146.77;38.62
55410;BME280;41279;43.546;16.426;2023-03-16T04:50:03;52410.31;;;-146.77;38.87
55410;BME280;41279;43.546;16.426;2023-03-16T04:52:30;52406.31;;;-146.77;38.72
55410;BME280;41279;43.546;16.426;2023-03-16T04:54:55;52408.31;;;-146.77;38.97
55410;BME280;41279;43.546;16.426;2023-03-16T04:57:21;52426.34;;;-146.77;39.51
55410;BME280;41279;43.546;16.426;2023-03-16T04:59:46;52384.28;;;-146.77;39.05
55410;BME280;41279;43.546;16.426;2023-03-16T05:02:12;52416.31;;;-146.77;39.49
55410;BME280;41279;43.546;16.426;2023-03-16T05:04:38;52434.34;;;-146.77;39.55
55410;BME280;41279;43.546;16.426;2023-03-16T05:07:04;52428.34;;;-146.77;39.66
55410;BME280;41279;43.546;16.426;2023-03-16T05:09:30;52412.31;;;-146.77;39.98
55410;BME280;41279;43.546;16.426;2023-03-16T05:11:56;52410.31;;;-146.77;39.92
55410;BME280;41279;43.546;16.426;2023-03-16T05:14:21;52400.31;;;-146.77;40.54
55410;BME280;41279;43.546;16.426;2023-03-16T05:16:47;52412.31;;;-146.77;40.62
55410;BME280;41279;43.546;16.426;2023-03-16T05:19:12;52392.28;;;-146.77;41.17
55410;BME280;41279;43.546;16.426;2023-03-16T05:21:38;52398.31;;;-146.77;41.54
55410;BME280;41279;43.546;16.426;2023-03-16T05:24:04;52416.31;;;-146.77;41.36
55410;BME280;41279;43.546;16.426;2023-03-16T05:26:30;52430.34;;;-146.77;41.84
55410;BME280;41279;43.546;16.426;2023-03-16T05:28:55;52418.31;;;-146.77;41.48
55410;BME280;41279;43.546;16.426;2023-03-16T05:31:22;52412.31;;;-146.77;41.37
55410;BME280;41279;43.546;16.426;2023-03-16T05:33:51;52396.31;;;-146.77;41.21
55410;BME280;41279;43.546;16.426;2023-03-16T05:36:16;52400.31;;;-146.77;41.54
55410;BME280;41279;43.546;16.426;2023-03-16T05:38:42;52402.31;;;-146.77;41.29
55410;BME280;41279;43.546;16.426;2023-03-16T05:41:07;52376.28;;;-146.77;41.43
55410;BME280;41279;43.546;16.426;2023-03-16T05:43:33;52384.28;;;-146.77;40.89
55410;BME280;41279;43.546;16.426;2023-03-16T05:45:58;52402.31;;;-146.77;40.82
55410;BME280;41279;43.546;16.426;2023-03-16T05:48:24;52360.25;;;-146.77;40.94
55410;BME280;41279;43.546;16.426;2023-03-16T05:50:51;52370.28;;;-146.77;40.74
55410;BME280;41279;43.546;16.426;2023-03-16T05:53:16;52396.31;;;-146.77;40.54
55410;BME280;41279;43.546;16.426;2023-03-16T05:55:42;52358.25;;;-146.77;40.49
55410;BME280;41279;43.546;16.426;2023-03-16T05:58:08;52364.28;;;-146.77;40.60
55410;BME280;41279;43.546;16.426;2023-03-16T06:00:33;52378.28;;;-146.77;40.42
55410;BME280;41279;43.546;16.426;2023-03-16T06:02:59;52374.28;;;-146.77;40.59
55410;BME280;41279;43.546;16.426;2023-03-16T06:05:26;52390.28;;;-146.77;40.46
55410;BME280;41279;43.546;16.426;2023-03-16T06:07:53;52396.31;;;-146.77;40.31
55410;BME280;41279;43.546;16.426;2023-03-16T06:10:19;52366.28;;;-146.77;40.29
55410;BME280;41279;43.546;16.426;2023-03-16T06:12:44;52364.28;;;-146.77;40.05
55410;BME280;41279;43.546;16.426;2023-03-16T06:15:10;52374.28;;;-146.77;39.51
55410;BME280;41279;43.546;16.426;2023-03-16T06:17:37;52384.28;;;-146.77;40.05
55410;BME280;41279;43.546;16.426;2023-03-16T06:20:05;52386.28;;;-146.77;39.40
55410;BME280;41279;43.546;16.426;2023-03-16T06:22:39;52372.28;;;-146.77;39.72
55410;BME280;41279;43.546;16.426;2023-03-16T06:25:06;52384.28;;;-146.77;39.14
55410;BME280;41279;43.546;16.426;2023-03-16T06:27:33;52382.28;;;-146.77;39.54
55410;BME280;41279;43.546;16.426;2023-03-16T06:29:58;52362.25;;;-146.77;38.54
55410;BME280;41279;43.546;16.426;2023-03-16T06:32:30;52382.28;;;-146.77;38.88
55410;BME280;41279;43.546;16.426;2023-03-16T06:34:56;52396.31;;;-146.77;39.13
55410;BME280;41279;43.546;16.426;2023-03-16T06:37:24;52374.28;;;-146.77;38.93
55410;BME280;41279;43.546;16.426;2023-03-16T06:39:49;52392.28;;;-146.77;39.10
55410;BME280;41279;43.546;16.426;2023-03-16T06:42:14;52390.28;;;-146.77;37.80
55410;BME280;41279;43.546;16.426;2023-03-16T06:44:40;52410.31;;;-146.77;38.06
55410;BME280;41279;43.546;16.426;2023-03-16T06:47:07;52370.28;;;-146.77;37.91
55410;BME280;41279;43.546;16.426;2023-03-16T06:49:32;52372.28;;;-146.77;38.88
55410;BME280;41279;43.546;16.426;2023-03-16T06:51:58;52378.28;;;-146.77;38.55
55410;BME280;41279;43.546;16.426;2023-03-16T06:54:23;52360.25;;;-146.77;38.24
55410;BME280;41279;43.546;16.426;2023-03-16T06:56:49;52392.28;;;-146.77;37.82
55410;BME280;41279;43.546;16.426;2023-03-16T06:59:15;52402.31;;;-146.77;38.71
55410;BME280;41279;43.546;16.426;2023-03-16T07:01:40;52418.31;;;-146.77;38.62
55410;BME280;41279;43.546;16.426;2023-03-16T07:04:06;52390.28;;;-146.77;38.89
55410;BME280;41279;43.546;16.426;2023-03-16T07:06:32;52402.31;;;-146.77;39.00
55410;BME280;41279;43.546;16.426;2023-03-16T07:08:58;52418.31;;;-146.77;38.87
55410;BME280;41279;43.546;16.426;2023-03-16T07:11:25;52392.28;;;-146.77;39.00
55410;BME280;41279;43.546;16.426;2023-03-16T07:13:51;52380.28;;;-146.77;39.10
55410;BME280;41279;43.546;16.426;2023-03-16T07:16:17;52412.31;;;-146.77;39.16
55410;BME280;41279;43.546;16.426;2023-03-16T07:18:42;52374.28;;;-146.77;38.94
55410;BME280;41279;43.546;16.426;2023-03-16T07:21:09;52366.28;;;-146.77;38.86
55410;BME280;41279;43.546;16.426;2023-03-16T07:23:35;52372.28;;;-146.77;38.64
55410;BME280;41279;43.546;16.426;2023-03-16T07:26:00;52362.25;;;-146.77;38.58
55410;BME280;41279;43.546;16.426;2023-03-16T07:28:26;52396.31;;;-146.77;38.63
55410;BME280;41279;43.546;16.426;2023-03-16T07:30:52;52382.28;;;-146.77;38.99
55410;BME280;41279;43.546;16.426;2023-03-16T07:33:18;52370.28;;;-146.77;39.06
55410;BME280;41279;43.546;16.426;2023-03-16T07:35:43;52364.28;;;-146.77;38.13
55410;BME280;41279;43.546;16.426;2023-03-16T07:38:09;52358.25;;;-146.77;38.92
55410;BME280;41279;43.546;16.426;2023-03-16T07:40:38;52368.28;;;-146.77;38.63
55410;BME280;41279;43.546;16.426;2023-03-16T07:43:04;52378.28;;;-146.77;38.79
55410;BME280;41279;43.546;16.426;2023-03-16T07:45:29;52380.28;;;-146.77;39.02
55410;BME280;41279;43.546;16.426;2023-03-16T07:47:56;52380.28;;;-146.77;38.66
55410;BME280;41279;43.546;16.426;2023-03-16T07:50:21;52390.28;;;-146.77;39.35
55410;BME280;41279;43.546;16.426;2023-03-16T07:52:47;52370.28;;;-146.77;39.22
55410;BME280;41279;43.546;16.426;2023-03-16T07:55:12;52372.28;;;-146.77;39.41
55410;BME280;41279;43.546;16.426;2023-03-16T07:57:38;52362.25;;;-146.77;39.69
55410;BME280;41279;43.546;16.426;2023-03-16T08:00:07;52374.28;;;-146.77;39.53
55410;BME280;41279;43.546;16.426;2023-03-16T08:02:33;52378.28;;;-146.77;39.43
55410;BME280;41279;43.546;16.426;2023-03-16T08:04:58;52396.31;;;-146.77;40.05
55410;BME280;41279;43.546;16.426;2023-03-16T08:07:24;52368.28;;;-146.77;40.22
55410;BME280;41279;43.546;16.426;2023-03-16T08:09:51;52378.28;;;-146.77;40.07
55410;BME280;41279;43.546;16.426;2023-03-16T08:12:16;52376.28;;;-146.77;39.71
55410;BME280;41279;43.546;16.426;2023-03-16T08:14:42;52368.28;;;-146.77;39.99
55410;BME280;41279;43.546;16.426;2023-03-16T08:17:10;52376.28;;;-146.77;40.17
55410;BME280;41279;43.546;16.426;2023-03-16T08:19:36;52374.28;;;-146.77;39.67
55410;BME280;41279;43.546;16.426;2023-03-16T08:22:03;52390.28;;;-146.77;39.92
55410;BME280;41279;43.546;16.426;2023-03-16T08:24:30;52348.25;;;-146.77;40.10
55410;BME280;41279;43.546;16.426;2023-03-16T08:26:55;52408.31;;;-146.77;40.25
55410;BME280;41279;43.546;16.426;2023-03-16T08:29:22;52402.31;;;-146.77;40.03
55410;BME280;41279;43.546;16.426;2023-03-16T08:31:47;52356.25;;;-146.77;39.29
55410;BME280;41279;43.546;16.426;2023-03-16T08:34:13;52408.31;;;-146.77;39.80
55410;BME280;41279;43.546;16.426;2023-03-16T08:36:40;52380.28;;;-146.77;39.66
55410;BME280;41279;43.546;16.426;2023-03-16T08:39:08;52394.28;;;-146.77;38.85
55410;BME280;41279;43.546;16.426;2023-03-16T08:41:42;52378.28;;;-146.77;39.03
55410;BME280;41279;43.546;16.426;2023-03-16T08:44:08;52390.28;;;-146.77;38.45
55410;BME280;41279;43.546;16.426;2023-03-16T08:46:34;52378.28;;;-146.77;39.46
55410;BME280;41279;43.546;16.426;2023-03-16T08:49:00;52380.28;;;-146.77;38.77
55410;BME280;41279;43.546;16.426;2023-03-16T08:51:27;52392.28;;;-146.77;39.31
55410;BME280;41279;43.546;16.426;2023-03-16T08:53:53;52408.31;;;-146.77;39.77
55410;BME280;41279;43.546;16.426;2023-03-16T08:56:19;52406.31;;;-146.77;39.28
55410;BME280;41279;43.546;16.426;2023-03-16T08:58:45;52392.28;;;-146.77;39.25
55410;BME280;41279;43.546;16.426;2023-03-16T09:01:13;52374.28;;;-146.77;38.86
55410;BME280;41279;43.546;16.426;2023-03-16T09:03:40;52362.25;;;-146.77;38.74
55410;BME280;41279;43.546;16.426;2023-03-16T09:06:08;52360.25;;;-146.77;39.34
55410;BME280;41279;43.546;16.426;2023-03-16T09:08:38;52370.28;;;-146.77;39.64
55410;BME280;41279;43.546;16.426;2023-03-16T09:11:06;52370.28;;;-146.77;38.85
55410;BME280;41279;43.546;16.426;2023-03-16T09:13:33;52394.28;;;-146.77;38.88
55410;BME280;41279;43.546;16.426;2023-03-16T09:15:59;52368.28;;;-146.77;39.37
55410;BME280;41279;43.546;16.426;2023-03-16T09:18:25;52396.31;;;-146.77;39.68
55410;BME280;41279;43.546;16.426;2023-03-16T09:20:58;52358.25;;;-146.77;39.42
55410;BME280;41279;43.546;16.426;2023-03-16T09:23:24;52370.28;;;-146.77;39.49
55410;BME280;41279;43.546;16.426;2023-03-16T09:25:51;52368.28;;;-146.77;39.50
55410;BME280;41279;43.546;16.426;2023-03-16T09:28:18;52374.28;;;-146.77;39.29
55410;BME280;41279;43.546;16.426;2023-03-16T09:30:43;52380.28;;;-146.77;39.78
55410;BME280;41279;43.546;16.426;2023-03-16T09:33:09;52368.28;;;-146.77;39.88
55410;BME280;41279;43.546;16.426;2023-03-16T09:35:34;52398.31;;;-146.77;40.01
55410;BME280;41279;43.546;16.426;2023-03-16T09:38:01;52414.31;;;-146.77;40.14
55410;BME280;41279;43.546;16.426;2023-03-16T09:40:28;52394.28;;;-146.77;39.44
55410;BME280;41279;43.546;16.426;2023-03-16T09:48:10;52354.25;;;-146.77;38.94
55410;BME280;41279;43.546;16.426;2023-03-16T09:50:38;52374.28;;;-146.77;38.46
55410;BME280;41279;43.546;16.426;2023-03-16T09:53:22;52396.31;;;-146.77;38.76
55410;BME280;41279;43.546;16.426;2023-03-16T09:55:56;52408.31;;;-146.77;38.96
55410;BME280;41279;43.546;16.426;2023-03-16T09:58:23;52388.28;;;-146.77;39.67
55410;BME280;41279;43.546;16.426;2023-03-16T10:01:21;52398.31;;;-146.77;39.44
55410;BME280;41279;43.546;16.426;2023-03-16T10:06:29;52378.28;;;-146.77;39.00
55410;BME280;41279;43.546;16.426;2023-03-16T10:09:02;52410.31;;;-146.77;39.13
55410;BME280;41279;43.546;16.426;2023-03-16T10:11:37;52370.28;;;-146.77;39.15
55410;BME280;41279;43.546;16.426;2023-03-16T10:14:12;52406.31;;;-146.77;39.28
55410;BME280;41279;43.546;16.426;2023-03-16T10:16:56;52382.28;;;-146.77;39.49
55410;BME280;41279;43.546;16.426;2023-03-16T10:22:30;52398.31;;;-146.77;38.59
55410;BME280;41279;43.546;16.426;2023-03-16T10:27:27;52368.28;;;-146.77;38.25
55410;BME280;41279;43.546;16.426;2023-03-16T10:29:54;52370.28;;;-146.77;38.32
55410;BME280;41279;43.546;16.426;2023-03-16T10:32:20;52366.28;;;-146.77;37.84
55410;BME280;41279;43.546;16.426;2023-03-16T10:35:10;52390.28;;;-146.77;37.68
55410;BME280;41279;43.546;16.426;2023-03-16T10:37:38;52390.28;;;-146.77;37.69
55410;BME280;41279;43.546;16.426;2023-03-16T10:40:08;52382.28;;;-146.77;37.42
55410;BME280;41279;43.546;16.426;2023-03-16T10:42:36;52412.31;;;-146.77;37.27
55410;BME280;41279;43.546;16.426;2023-03-16T10:45:02;52392.28;;;-146.77;37.22
55410;BME280;41279;43.546;16.426;2023-03-16T10:47:30;52404.31;;;-146.77;37.20
55410;BME280;41279;43.546;16.426;2023-03-16T10:49:56;52398.31;;;-146.77;37.19
55410;BME280;41279;43.546;16.426;2023-03-16T10:54:56;52388.28;;;-146.77;36.87
55410;BME280;41279;43.546;16.426;2023-03-16T10:57:33;52426.34;;;-146.77;36.86
55410;BME280;41279;43.546;16.426;2023-03-16T11:00:12;52370.28;;;-146.77;36.58
55410;BME280;41279;43.546;16.426;2023-03-16T11:02:48;52378.28;;;-146.77;35.96
55410;BME280;41279;43.546;16.426;2023-03-16T11:10:28;52372.28;;;-146.77;35.46
55410;BME280;41279;43.546;16.426;2023-03-16T11:12:54;52360.25;;;-146.77;35.73
55410;BME280;41279;43.546;16.426;2023-03-16T11:15:19;52378.28;;;-146.77;35.35
55410;BME280;41279;43.546;16.426;2023-03-16T11:17:50;52412.31;;;-146.77;35.60
55410;BME280;41279;43.546;16.426;2023-03-16T11:20:24;52370.28;;;-146.77;35.72
55410;BME280;41279;43.546;16.426;2023-03-16T11:22:51;52408.31;;;-146.77;35.41
55410;BME280;41279;43.546;16.426;2023-03-16T11:25:27;52428.34;;;-146.77;35.17
55410;BME280;41279;43.546;16.426;2023-03-16T11:28:05;52404.31;;;-146.77;35.06
55410;BME280;41279;43.546;16.426;2023-03-16T11:33:11;52416.31;;;-146.77;34.63
55410;BME280;41279;43.546;16.426;2023-03-16T11:38:36;52400.31;;;-146.77;35.47
55410;BME280;41279;43.546;16.426;2023-03-16T11:41:10;52412.31;;;-146.77;35.18
55410;BME280;41279;43.546;16.426;2023-03-16T12:00:45;52386.28;;;-146.77;35.17
55410;BME280;41279;43.546;16.426;2023-03-16T12:06:04;52396.31;;;-146.77;34.63
55410;BME280;41279;43.546;16.426;2023-03-16T12:24:56;52410.31;;;-146.77;34.57
55410;BME280;41279;43.546;16.426;2023-03-16T12:27:35;52384.28;;;-146.77;34.66
55410;BME280;41279;43.546;16.426;2023-03-16T12:35:38;52382.28;;;-146.77;34.29
55410;BME280;41279;43.546;16.426;2023-03-16T12:46:29;52424.31;;;-146.77;33.98
55410;BME280;41279;43.546;16.426;2023-03-16T12:48:59;52408.31;;;-146.77;34.10
55410;BME280;41279;43.546;16.426;2023-03-16T12:51:37;52406.31;;;-146.77;33.15
55410;BME280;41279;43.546;16.426;2023-03-16T12:54:04;52392.28;;;-146.77;34.42
55410;BME280;41279;43.546;16.426;2023-03-16T12:56:31;52444.34;;;-146.77;33.05
55410;BME280;41279;43.546;16.426;2023-03-16T12:58:59;52406.31;;;-146.77;32.65
55410;BME280;41279;43.546;16.426;2023-03-16T13:01:36;52438.34;;;-146.77;33.19
55410;BME280;41279;43.546;16.426;2023-03-16T13:04:32;52414.31;;;-146.77;32.78
55410;BME280;41279;43.546;16.426;2023-03-16T13:07:07;52444.34;;;-146.77;33.04
55410;BME280;41279;43.546;16.426;2023-03-16T13:09:42;52436.34;;;-146.77;33.73
55410;BME280;41279;43.546;16.426;2023-03-16T13:12:21;52458.38;;;-146.77;32.57
55410;BME280;41279;43.546;16.426;2023-03-16T13:14:46;52430.34;;;-146.77;32.49
55410;BME280;41279;43.546;16.426;2023-03-16T13:19:56;52398.31;;;-146.77;33.09
55410;BME280;41279;43.546;16.426;2023-03-16T13:22:29;52400.31;;;-146.77;32.31
55410;BME280;41279;43.546;16.426;2023-03-16T13:25:22;52430.34;;;-146.77;32.50
55410;BME280;41279;43.546;16.426;2023-03-16T13:27:52;52384.28;;;-146.77;33.02
55410;BME280;41279;43.546;16.426;2023-03-16T13:32:44;52370.28;;;-146.77;33.25
55410;BME280;41279;43.546;16.426;2023-03-16T13:35:16;52396.31;;;-146.77;33.23
55410;BME280;41279;43.546;16.426;2023-03-16T13:37:42;52378.28;;;-146.77;33.24
55410;BME280;41279;43.546;16.426;2023-03-16T13:40:23;52410.31;;;-146.77;32.48
55410;BME280;41279;43.546;16.426;2023-03-16T13:42:50;52376.28;;;-146.77;33.16
55410;BME280;41279;43.546;16.426;2023-03-16T13:45:20;52426.34;;;-146.77;32.71
55410;BME280;41279;43.546;16.426;2023-03-16T13:47:47;52420.31;;;-146.77;31.81
55410;BME280;41279;43.546;16.426;2023-03-16T13:50:14;52394.28;;;-146.77;32.49
55410;BME280;41279;43.546;16.426;2023-03-16T13:52:41;52402.31;;;-146.77;31.87
55410;BME280;41279;43.546;16.426;2023-03-16T13:55:16;52404.31;;;-146.77;32.31
55410;BME280;41279;43.546;16.426;2023-03-16T13:57:42;52430.34;;;-146.77;32.29
55410;BME280;41279;43.546;16.426;2023-03-16T14:00:16;52418.31;;;-146.77;32.21